Menifee, Arkansas
Current Conditions -  °F | °C
As of 6:28 PM on Thursday 18 Dec 2014 (Local Time) from KLRF Reporting Station
Haze Haze  
Wind Chill: 38°   Ceiling: 400
Heat Index: 41°   Visibility: 6mi
Dew Point: 41°   Wind: 5mph
Humidity: 100%   Direction: 60°ENE
Pressure: 30.21"   Gusts: NA
Location:  35.15°N, 92.55°W
Report Text: KLRF 190028Z AUTO 06004KT 6SM BR OVC004 05/05 A3021 RMK AO2
Loading
Personal Weather Stations






























Interactive Weather Map New forecast layout! Learn more

10-Day Weather Forecast

Advertisements
Track Severe Weather on mobile